sensor_id;sensor_type;location;lat;lon;timestamp;temperature;humidity
27795;DHT22;15176;50.844;4.412;2022-10-16T00:00:28;15.80;99.90
27795;DHT22;15176;50.844;4.412;2022-10-16T00:02:53;16.20;99.90
27795;DHT22;15176;50.844;4.412;2022-10-16T00:05:19;16.50;99.90
27795;DHT22;15176;50.844;4.412;2022-10-16T00:07:45;16.80;99.90
27795;DHT22;15176;50.844;4.412;2022-10-16T00:10:10;17.10;99.90
27795;DHT22;15176;50.844;4.412;2022-10-16T00:12:36;17.20;99.90
27795;DHT22;15176;50.844;4.412;2022-10-16T00:15:02;16.70;99.90
27795;DHT22;15176;50.844;4.412;2022-10-16T00:17:29;16.80;99.90
27795;DHT22;15176;50.844;4.412;2022-10-16T00:19:55;17.00;99.90
27795;DHT22;15176;50.844;4.412;2022-10-16T00:22:20;16.60;99.90
27795;DHT22;15176;50.844;4.412;2022-10-16T00:24:46;16.70;99.90
27795;DHT22;15176;50.844;4.412;2022-10-16T00:27:12;16.70;99.90
27795;DHT22;15176;50.844;4.412;2022-10-16T00:29:37;16.60;99.90
27795;DHT22;15176;50.844;4.412;2022-10-16T00:32:03;16.60;99.90
27795;DHT22;15176;50.844;4.412;2022-10-16T00:34:29;16.60;99.90
27795;DHT22;15176;50.844;4.412;2022-10-16T00:36:54;16.60;99.90
27795;DHT22;15176;50.844;4.412;2022-10-16T00:39:20;16.40;99.90
27795;DHT22;15176;50.844;4.412;2022-10-16T00:41:46;16.60;99.90
27795;DHT22;15176;50.844;4.412;2022-10-16T00:44:47;16.70;99.90
27795;DHT22;15176;50.844;4.412;2022-10-16T00:47:51;16.70;99.90
27795;DHT22;15176;50.844;4.412;2022-10-16T00:50:29;16.80;99.90
27795;DHT22;15176;50.844;4.412;2022-10-16T00:52:56;16.20;99.90
27795;DHT22;15176;50.844;4.412;2022-10-16T00:55:22;16.00;99.90
27795;DHT22;15176;50.844;4.412;2022-10-16T00:57:50;16.10;99.90
27795;DHT22;15176;50.844;4.412;2022-10-16T01:00:20;16.00;99.90
27795;DHT22;15176;50.844;4.412;2022-10-16T01:02:57;16.00;99.90
27795;DHT22;15176;50.844;4.412;2022-10-16T01:05:34;16.20;99.90
27795;DHT22;15176;50.844;4.412;2022-10-16T01:08:08;16.00;99.90
27795;DHT22;15176;50.844;4.412;2022-10-16T01:10:59;16.20;99.90
27795;DHT22;15176;50.844;4.412;2022-10-16T01:13:35;16.50;99.90
27795;DHT22;15176;50.844;4.412;2022-10-16T01:16:29;16.10;99.90
27795;DHT22;15176;50.844;4.412;2022-10-16T01:21:36;16.60;99.90
27795;DHT22;15176;50.844;4.412;2022-10-16T01:24:08;16.70;99.90
27795;DHT22;15176;50.844;4.412;2022-10-16T01:29:28;16.40;99.90
27795;DHT22;15176;50.844;4.412;2022-10-16T01:37:36;16.50;99.90
27795;DHT22;15176;50.844;4.412;2022-10-16T01:40:09;16.40;99.90
27795;DHT22;15176;50.844;4.412;2022-10-16T01:42:40;16.30;99.90
27795;DHT22;15176;50.844;4.412;2022-10-16T01:45:07;16.20;99.90
27795;DHT22;15176;50.844;4.412;2022-10-16T01:47:37;16.40;99.90
27795;DHT22;15176;50.844;4.412;2022-10-16T01:50:05;16.50;99.90
27795;DHT22;15176;50.844;4.412;2022-10-16T01:52:37;16.60;99.90
27795;DHT22;15176;50.844;4.412;2022-10-16T01:55:06;16.70;99.90
27795;DHT22;15176;50.844;4.412;2022-10-16T01:57:36;16.80;99.90
27795;DHT22;15176;50.844;4.412;2022-10-16T02:00:09;16.40;99.90
27795;DHT22;15176;50.844;4.412;2022-10-16T02:02:36;16.50;99.90
27795;DHT22;15176;50.844;4.412;2022-10-16T02:05:20;16.70;99.90
27795;DHT22;15176;50.844;4.412;2022-10-16T02:07:47;16.60;99.90
27795;DHT22;15176;50.844;4.412;2022-10-16T02:10:13;16.40;99.90
27795;DHT22;15176;50.844;4.412;2022-10-16T02:12:44;16.70;99.90
27795;DHT22;15176;50.844;4.412;2022-10-16T02:15:12;16.60;99.90
27795;DHT22;15176;50.844;4.412;2022-10-16T02:17:37;16.90;99.90
27795;DHT22;15176;50.844;4.412;2022-10-16T02:20:04;16.40;99.90
27795;DHT22;15176;50.844;4.412;2022-10-16T02:22:36;16.30;99.90
27795;DHT22;15176;50.844;4.412;2022-10-16T02:27:51;16.60;99.90
27795;DHT22;15176;50.844;4.412;2022-10-16T02:32:54;15.90;99.90
27795;DHT22;15176;50.844;4.412;2022-10-16T02:35:21;16.00;99.90
27795;DHT22;15176;50.844;4.412;2022-10-16T02:37:49;16.10;99.90
27795;DHT22;15176;50.844;4.412;2022-10-16T02:40:16;16.20;99.90
27795;DHT22;15176;50.844;4.412;2022-10-16T02:42:42;16.20;99.90
27795;DHT22;15176;50.844;4.412;2022-10-16T02:45:10;16.30;99.90
27795;DHT22;15176;50.844;4.412;2022-10-16T02:47:36;16.20;99.90
27795;DHT22;15176;50.844;4.412;2022-10-16T02:50:02;16.30;99.90
27795;DHT22;15176;50.844;4.412;2022-10-16T02:52:27;16.30;99.90
27795;DHT22;15176;50.844;4.412;2022-10-16T02:54:53;15.90;99.90
27795;DHT22;15176;50.844;4.412;2022-10-16T02:57:19;16.20;99.90
27795;DHT22;15176;50.844;4.412;2022-10-16T02:59:45;16.50;99.90
27795;DHT22;15176;50.844;4.412;2022-10-16T03:02:10;16.70;99.90
27795;DHT22;15176;50.844;4.412;2022-10-16T03:04:36;16.60;99.90
27795;DHT22;15176;50.844;4.412;2022-10-16T03:07:02;16.80;99.90
27795;DHT22;15176;50.844;4.412;2022-10-16T03:09:28;16.70;99.90
27795;DHT22;15176;50.844;4.412;2022-10-16T03:11:54;16.60;99.90
27795;DHT22;15176;50.844;4.412;2022-10-16T03:14:19;16.60;99.90
27795;DHT22;15176;50.844;4.412;2022-10-16T03:16:45;16.50;99.90
27795;DHT22;15176;50.844;4.412;2022-10-16T03:19:10;16.80;99.90
27795;DHT22;15176;50.844;4.412;2022-10-16T03:21:36;16.90;99.90
27795;DHT22;15176;50.844;4.412;2022-10-16T03:24:02;16.80;99.90
27795;DHT22;15176;50.844;4.412;2022-10-16T03:26:28;16.60;99.90
27795;DHT22;15176;50.844;4.412;2022-10-16T03:28:53;16.20;99.90
27795;DHT22;15176;50.844;4.412;2022-10-16T03:31:19;15.70;99.90
27795;DHT22;15176;50.844;4.412;2022-10-16T03:33:45;15.60;99.90
27795;DHT22;15176;50.844;4.412;2022-10-16T03:36:10;15.60;99.90
27795;DHT22;15176;50.844;4.412;2022-10-16T03:38:36;15.70;99.90
27795;DHT22;15176;50.844;4.412;2022-10-16T03:41:02;15.90;99.90
27795;DHT22;15176;50.844;4.412;2022-10-16T03:43:29;16.00;99.90
27795;DHT22;15176;50.844;4.412;2022-10-16T03:45:54;15.80;99.90
27795;DHT22;15176;50.844;4.412;2022-10-16T03:48:20;15.80;99.90
27795;DHT22;15176;50.844;4.412;2022-10-16T03:50:46;15.60;99.90
27795;DHT22;15176;50.844;4.412;2022-10-16T03:53:14;15.70;99.90
27795;DHT22;15176;50.844;4.412;2022-10-16T03:55:43;15.60;99.90
27795;DHT22;15176;50.844;4.412;2022-10-16T03:58:09;15.90;99.90
27795;DHT22;15176;50.844;4.412;2022-10-16T04:00:34;15.80;99.90
27795;DHT22;15176;50.844;4.412;2022-10-16T04:03:00;15.70;99.90
27795;DHT22;15176;50.844;4.412;2022-10-16T04:05:26;15.60;99.90
27795;DHT22;15176;50.844;4.412;2022-10-16T04:07:52;15.80;99.90
27795;DHT22;15176;50.844;4.412;2022-10-16T04:10:17;15.70;99.90
27795;DHT22;15176;50.844;4.412;2022-10-16T04:12:44;15.80;99.90
27795;DHT22;15176;50.844;4.412;2022-10-16T04:15:10;15.90;99.90
27795;DHT22;15176;50.844;4.412;2022-10-16T04:17:35;16.30;99.90
27795;DHT22;15176;50.844;4.412;2022-10-16T04:20:01;16.40;99.90
27795;DHT22;15176;50.844;4.412;2022-10-16T04:22:26;16.00;99.90
27795;DHT22;15176;50.844;4.412;2022-10-16T04:24:52;15.80;99.90
27795;DHT22;15176;50.844;4.412;2022-10-16T04:27:18;15.80;99.90
27795;DHT22;15176;50.844;4.412;2022-10-16T04:29:43;16.30;99.90
27795;DHT22;15176;50.844;4.412;2022-10-16T04:32:09;16.00;99.90
27795;DHT22;15176;50.844;4.412;2022-10-16T04:34:35;15.80;99.90
27795;DHT22;15176;50.844;4.412;2022-10-16T04:37:00;15.90;99.90
27795;DHT22;15176;50.844;4.412;2022-10-16T04:39:26;15.90;99.90
27795;DHT22;15176;50.844;4.412;2022-10-16T04:41:52;16.10;99.90
27795;DHT22;15176;50.844;4.412;2022-10-16T04:44:17;16.00;99.90
27795;DHT22;15176;50.844;4.412;2022-10-16T04:46:43;16.00;99.90
27795;DHT22;15176;50.844;4.412;2022-10-16T04:49:09;15.90;99.90
27795;DHT22;15176;50.844;4.412;2022-10-16T04:51:35;15.80;99.90
27795;DHT22;15176;50.844;4.412;2022-10-16T04:54:01;16.00;99.90
27795;DHT22;15176;50.844;4.412;2022-10-16T04:56:27;16.00;99.90
27795;DHT22;15176;50.844;4.412;2022-10-16T04:58:53;16.10;99.90
27795;DHT22;15176;50.844;4.412;2022-10-16T05:01:19;16.40;99.90
27795;DHT22;15176;50.844;4.412;2022-10-16T05:03:45;16.30;99.90
27795;DHT22;15176;50.844;4.412;2022-10-16T05:06:11;16.00;99.90
27795;DHT22;15176;50.844;4.412;2022-10-16T05:08:36;16.00;99.90
27795;DHT22;15176;50.844;4.412;2022-10-16T05:11:02;16.00;99.90
27795;DHT22;15176;50.844;4.412;2022-10-16T05:13:28;16.40;99.90
27795;DHT22;15176;50.844;4.412;2022-10-16T05:15:53;16.40;99.90
27795;DHT22;15176;50.844;4.412;2022-10-16T05:18:19;16.10;99.90
27795;DHT22;15176;50.844;4.412;2022-10-16T05:20:45;16.10;99.90
27795;DHT22;15176;50.844;4.412;2022-10-16T05:23:10;16.20;99.90
27795;DHT22;15176;50.844;4.412;2022-10-16T05:25:37;16.50;99.90
27795;DHT22;15176;50.844;4.412;2022-10-16T05:28:02;16.70;99.90
27795;DHT22;15176;50.844;4.412;2022-10-16T05:30:28;16.70;99.90
27795;DHT22;15176;50.844;4.412;2022-10-16T05:32:54;16.80;99.90
27795;DHT22;15176;50.844;4.412;2022-10-16T05:35:20;16.70;99.90
27795;DHT22;15176;50.844;4.412;2022-10-16T05:37:46;16.20;99.90
27795;DHT22;15176;50.844;4.412;2022-10-16T05:40:12;16.30;99.90
27795;DHT22;15176;50.844;4.412;2022-10-16T05:42:38;16.10;99.90
27795;DHT22;15176;50.844;4.412;2022-10-16T05:45:09;15.80;99.90
27795;DHT22;15176;50.844;4.412;2022-10-16T05:47:35;15.90;99.90
27795;DHT22;15176;50.844;4.412;2022-10-16T05:50:02;15.80;99.90
27795;DHT22;15176;50.844;4.412;2022-10-16T05:52:29;15.60;99.90
27795;DHT22;15176;50.844;4.412;2022-10-16T05:54:55;15.50;99.90
27795;DHT22;15176;50.844;4.412;2022-10-16T05:57:20;15.80;99.90
27795;DHT22;15176;50.844;4.412;2022-10-16T05:59:46;15.80;99.90
27795;DHT22;15176;50.844;4.412;2022-10-16T06:02:13;16.10;99.90
27795;DHT22;15176;50.844;4.412;2022-10-16T06:04:39;16.30;99.90
27795;DHT22;15176;50.844;4.412;2022-10-16T06:07:05;16.30;99.90
27795;DHT22;15176;50.844;4.412;2022-10-16T06:09:30;16.00;99.90
27795;DHT22;15176;50.844;4.412;2022-10-16T06:11:56;16.20;99.90
27795;DHT22;15176;50.844;4.412;2022-10-16T06:14:22;15.90;99.90
27795;DHT22;15176;50.844;4.412;2022-10-16T06:16:48;15.90;99.90
27795;DHT22;15176;50.844;4.412;2022-10-16T06:19:13;16.00;99.90
27795;DHT22;15176;50.844;4.412;2022-10-16T06:21:39;16.10;99.90
27795;DHT22;15176;50.844;4.412;2022-10-16T06:24:05;16.20;99.90
27795;DHT22;15176;50.844;4.412;2022-10-16T06:26:31;15.90;99.90
27795;DHT22;15176;50.844;4.412;2022-10-16T06:28:58;16.00;99.90
27795;DHT22;15176;50.844;4.412;2022-10-16T06:31:25;16.20;99.90
27795;DHT22;15176;50.844;4.412;2022-10-16T06:33:53;16.40;99.90
27795;DHT22;15176;50.844;4.412;2022-10-16T06:36:19;15.90;99.90
27795;DHT22;15176;50.844;4.412;2022-10-16T06:38:45;16.00;99.90
27795;DHT22;15176;50.844;4.412;2022-10-16T06:41:14;16.30;99.90
27795;DHT22;15176;50.844;4.412;2022-10-16T06:43:40;16.50;99.90
27795;DHT22;15176;50.844;4.412;2022-10-16T06:46:08;16.10;99.90
27795;DHT22;15176;50.844;4.412;2022-10-16T06:48:35;16.20;99.90
27795;DHT22;15176;50.844;4.412;2022-10-16T06:51:10;16.50;99.90
27795;DHT22;15176;50.844;4.412;2022-10-16T06:53:39;16.70;99.90
27795;DHT22;15176;50.844;4.412;2022-10-16T06:56:12;16.50;99.90
27795;DHT22;15176;50.844;4.412;2022-10-16T06:58:38;15.90;99.90
27795;DHT22;15176;50.844;4.412;2022-10-16T07:01:05;15.80;99.90
27795;DHT22;15176;50.844;4.412;2022-10-16T07:03:31;16.10;99.90
27795;DHT22;15176;50.844;4.412;2022-10-16T07:05:56;16.40;99.90
27795;DHT22;15176;50.844;4.412;2022-10-16T07:08:22;16.40;99.90
27795;DHT22;15176;50.844;4.412;2022-10-16T07:10:48;16.50;99.90
27795;DHT22;15176;50.844;4.412;2022-10-16T07:13:13;16.70;99.90
27795;DHT22;15176;50.844;4.412;2022-10-16T07:15:40;16.40;99.90
27795;DHT22;15176;50.844;4.412;2022-10-16T07:18:06;16.30;99.90
27795;DHT22;15176;50.844;4.412;2022-10-16T07:20:32;16.40;99.90
27795;DHT22;15176;50.844;4.412;2022-10-16T07:22:58;16.40;99.90
27795;DHT22;15176;50.844;4.412;2022-10-16T07:25:24;16.50;99.90
27795;DHT22;15176;50.844;4.412;2022-10-16T07:27:49;16.30;99.90
27795;DHT22;15176;50.844;4.412;2022-10-16T07:30:15;16.40;99.90
27795;DHT22;15176;50.844;4.412;2022-10-16T07:32:41;16.30;99.90
27795;DHT22;15176;50.844;4.412;2022-10-16T07:35:07;16.40;99.90
27795;DHT22;15176;50.844;4.412;2022-10-16T07:37:33;16.40;99.90
27795;DHT22;15176;50.844;4.412;2022-10-16T07:39:58;16.40;99.90
27795;DHT22;15176;50.844;4.412;2022-10-16T07:42:24;16.60;99.90
27795;DHT22;15176;50.844;4.412;2022-10-16T07:44:49;16.50;99.90
27795;DHT22;15176;50.844;4.412;2022-10-16T07:47:15;16.60;99.90
27795;DHT22;15176;50.844;4.412;2022-10-16T07:49:41;16.60;99.90
27795;DHT22;15176;50.844;4.412;2022-10-16T07:52:06;16.30;99.90
27795;DHT22;15176;50.844;4.412;2022-10-16T07:54:32;16.30;99.90
27795;DHT22;15176;50.844;4.412;2022-10-16T07:56:58;16.50;99.90
27795;DHT22;15176;50.844;4.412;2022-10-16T07:59:23;16.50;99.90
27795;DHT22;15176;50.844;4.412;2022-10-16T08:01:49;16.50;99.90
27795;DHT22;15176;50.844;4.412;2022-10-16T08:04:15;16.60;99.90
27795;DHT22;15176;50.844;4.412;2022-10-16T08:06:41;17.20;99.90
27795;DHT22;15176;50.844;4.412;2022-10-16T08:09:08;17.50;99.90
27795;DHT22;15176;50.844;4.412;2022-10-16T08:11:34;18.00;99.90
27795;DHT22;15176;50.844;4.412;2022-10-16T08:13:59;18.70;99.90
27795;DHT22;15176;50.844;4.412;2022-10-16T08:16:25;19.50;99.90
27795;DHT22;15176;50.844;4.412;2022-10-16T08:18:51;19.80;99.90
27795;DHT22;15176;50.844;4.412;2022-10-16T08:21:19;20.40;99.90
27795;DHT22;15176;50.844;4.412;2022-10-16T08:23:45;20.90;99.90
27795;DHT22;15176;50.844;4.412;2022-10-16T08:26:11;21.40;99.90
27795;DHT22;15176;50.844;4.412;2022-10-16T08:28:37;21.80;99.90
27795;DHT22;15176;50.844;4.412;2022-10-16T08:31:12;21.80;99.90
27795;DHT22;15176;50.844;4.412;2022-10-16T08:33:39;22.60;99.90
27795;DHT22;15176;50.844;4.412;2022-10-16T08:36:06;22.70;99.90
27795;DHT22;15176;50.844;4.412;2022-10-16T08:38:32;22.90;99.90
27795;DHT22;15176;50.844;4.412;2022-10-16T08:47:23;23.70;99.90
27795;DHT22;15176;50.844;4.412;2022-10-16T08:49:23;23.90;99.90
27795;DHT22;15176;50.844;4.412;2022-10-16T08:51:50;24.10;99.90
27795;DHT22;15176;50.844;4.412;2022-10-16T08:54:28;23.90;99.90
27795;DHT22;15176;50.844;4.412;2022-10-16T08:56:56;24.50;99.90
27795;DHT22;15176;50.844;4.412;2022-10-16T08:59:22;25.20;99.50
27795;DHT22;15176;50.844;4.412;2022-10-16T09:01:51;24.90;98.80
27795;DHT22;15176;50.844;4.412;2022-10-16T09:07:54;24.80;98.40
27795;DHT22;15176;50.844;4.412;2022-10-16T09:13:15;24.70;97.90
27795;DHT22;15176;50.844;4.412;2022-10-16T09:15:52;25.10;98.10
27795;DHT22;15176;50.844;4.412;2022-10-16T09:21:37;26.70;92.80
27795;DHT22;15176;50.844;4.412;2022-10-16T09:23:37;27.10;91.00
27795;DHT22;15176;50.844;4.412;2022-10-16T09:26:03;26.60;92.10
27795;DHT22;15176;50.844;4.412;2022-10-16T09:28:30;27.40;89.90
27795;DHT22;15176;50.844;4.412;2022-10-16T09:30:56;27.30;87.90
27795;DHT22;15176;50.844;4.412;2022-10-16T09:33:33;26.90;90.30
27795;DHT22;15176;50.844;4.412;2022-10-16T09:36:03;27.50;86.80
27795;DHT22;15176;50.844;4.412;2022-10-16T09:38:33;27.90;85.30
27795;DHT22;15176;50.844;4.412;2022-10-16T09:41:02;27.80;82.20
27795;DHT22;15176;50.844;4.412;2022-10-16T09:43:39;27.60;84.60
27795;DHT22;15176;50.844;4.412;2022-10-16T09:46:08;27.40;82.60
27795;DHT22;15176;50.844;4.412;2022-10-16T09:51:04;26.80;85.60
27795;DHT22;15176;50.844;4.412;2022-10-16T09:53:42;27.20;84.10
27795;DHT22;15176;50.844;4.412;2022-10-16T09:56:10;27.60;83.50
27795;DHT22;15176;50.844;4.412;2022-10-16T09:58:42;28.10;81.80
27795;DHT22;15176;50.844;4.412;2022-10-16T10:01:14;28.20;79.30
27795;DHT22;15176;50.844;4.412;2022-10-16T10:03:42;28.20;78.60
27795;DHT22;15176;50.844;4.412;2022-10-16T10:08:57;29.50;73.20
27795;DHT22;15176;50.844;4.412;2022-10-16T10:14:39;29.20;70.10
27795;DHT22;15176;50.844;4.412;2022-10-16T10:36:30;26.20;85.10
27795;DHT22;15176;50.844;4.412;2022-10-16T10:39:06;26.40;82.60
27795;DHT22;15176;50.844;4.412;2022-10-16T10:44:30;26.20;83.10
27795;DHT22;15176;50.844;4.412;2022-10-16T10:50:22;27.60;77.60
27795;DHT22;15176;50.844;4.412;2022-10-16T10:55:49;27.10;78.20
27795;DHT22;15176;50.844;4.412;2022-10-16T11:01:13;28.70;73.00
27795;DHT22;15176;50.844;4.412;2022-10-16T11:06:48;27.70;73.50
27795;DHT22;15176;50.844;4.412;2022-10-16T11:09:19;28.00;73.60
27795;DHT22;15176;50.844;4.412;2022-10-16T11:12:29;27.40;72.80
27795;DHT22;15176;50.844;4.412;2022-10-16T11:17:23;27.90;73.70
27795;DHT22;15176;50.844;4.412;2022-10-16T11:20:17;28.40;71.00
27795;DHT22;15176;50.844;4.412;2022-10-16T11:23:14;29.50;68.80
27795;DHT22;15176;50.844;4.412;2022-10-16T11:25:36;29.80;65.00
27795;DHT22;15176;50.844;4.412;2022-10-16T11:30:50;29.50;62.90
27795;DHT22;15176;50.844;4.412;2022-10-16T11:33:32;29.70;61.30
27795;DHT22;15176;50.844;4.412;2022-10-16T11:36:12;28.30;65.10
27795;DHT22;15176;50.844;4.412;2022-10-16T11:41:41;28.60;66.50
27795;DHT22;15176;50.844;4.412;2022-10-16T11:46:52;29.00;66.10
27795;DHT22;15176;50.844;4.412;2022-10-16T11:49:26;29.30;63.70
27795;DHT22;15176;50.844;4.412;2022-10-16T11:55:02;28.60;65.30
27795;DHT22;15176;50.844;4.412;2022-10-16T11:57:44;28.20;66.40
27795;DHT22;15176;50.844;4.412;2022-10-16T12:00:25;27.00;69.70
27795;DHT22;15176;50.844;4.412;2022-10-16T12:03:01;26.40;72.50
27795;DHT22;15176;50.844;4.412;2022-10-16T12:05:52;26.00;74.60
27795;DHT22;15176;50.844;4.412;2022-10-16T12:08:21;24.60;77.70
27795;DHT22;15176;50.844;4.412;2022-10-16T12:10:47;24.00;82.30
27795;DHT22;15176;50.844;4.412;2022-10-16T12:13:35;24.70;81.50
27795;DHT22;15176;50.844;4.412;2022-10-16T12:18:45;23.60;86.30
27795;DHT22;15176;50.844;4.412;2022-10-16T12:21:13;23.60;88.70
27795;DHT22;15176;50.844;4.412;2022-10-16T12:23:54;23.70;88.00
27795;DHT22;15176;50.844;4.412;2022-10-16T12:26:32;23.70;87.90
27795;DHT22;15176;50.844;4.412;2022-10-16T12:31:56;24.10;86.60
27795;DHT22;15176;50.844;4.412;2022-10-16T12:34:33;23.60;88.30
27795;DHT22;15176;50.844;4.412;2022-10-16T12:37:11;23.70;89.40
27795;DHT22;15176;50.844;4.412;2022-10-16T12:39:38;23.40;89.40
27795;DHT22;15176;50.844;4.412;2022-10-16T12:42:50;23.30;90.20
27795;DHT22;15176;50.844;4.412;2022-10-16T12:44:51;23.10;90.50
27795;DHT22;15176;50.844;4.412;2022-10-16T12:47:22;23.00;91.80
27795;DHT22;15176;50.844;4.412;2022-10-16T12:49:53;23.20;92.00
27795;DHT22;15176;50.844;4.412;2022-10-16T12:52:35;22.70;93.30
27795;DHT22;15176;50.844;4.412;2022-10-16T12:55:03;22.40;95.10
27795;DHT22;15176;50.844;4.412;2022-10-16T12:57:58;22.00;96.70
27795;DHT22;15176;50.844;4.412;2022-10-16T13:00:32;21.80;97.80
27795;DHT22;15176;50.844;4.412;2022-10-16T13:03:25;21.70;98.80
27795;DHT22;15176;50.844;4.412;2022-10-16T13:30:12;22.30;99.50
27795;DHT22;15176;50.844;4.412;2022-10-16T13:32:47;22.60;99.20
27795;DHT22;15176;50.844;4.412;2022-10-16T13:35:28;23.10;98.00
27795;DHT22;15176;50.844;4.412;2022-10-16T13:38:08;22.60;99.10
27795;DHT22;15176;50.844;4.412;2022-10-16T13:40:36;23.00;99.10
27795;DHT22;15176;50.844;4.412;2022-10-16T13:43:02;23.10;97.80
27795;DHT22;15176;50.844;4.412;2022-10-16T13:45:28;23.10;98.00
27795;DHT22;15176;50.844;4.412;2022-10-16T13:48:04;22.70;98.20
27795;DHT22;15176;50.844;4.412;2022-10-16T13:50:30;23.10;97.40
27795;DHT22;15176;50.844;4.412;2022-10-16T13:53:06;22.60;98.40
27795;DHT22;15176;50.844;4.412;2022-10-16T13:55:32;22.60;97.80
27795;DHT22;15176;50.844;4.412;2022-10-16T13:58:10;22.80;97.20
27795;DHT22;15176;50.844;4.412;2022-10-16T14:00:37;22.70;96.80
27795;DHT22;15176;50.844;4.412;2022-10-16T14:03:05;22.40;98.00
27795;DHT22;15176;50.844;4.412;2022-10-16T14:05:32;22.50;97.70
27795;DHT22;15176;50.844;4.412;2022-10-16T14:07:58;22.90;97.10
27795;DHT22;15176;50.844;4.412;2022-10-16T14:10:28;22.80;96.60
27795;DHT22;15176;50.844;4.412;2022-10-16T14:13:06;22.70;97.10
27795;DHT22;15176;50.844;4.412;2022-10-16T14:15:34;22.30;99.00
27795;DHT22;15176;50.844;4.412;2022-10-16T14:18:00;22.30;99.20
27795;DHT22;15176;50.844;4.412;2022-10-16T14:20:32;21.90;99.90
27795;DHT22;15176;50.844;4.412;2022-10-16T14:23:23;21.90;99.90
27795;DHT22;15176;50.844;4.412;2022-10-16T14:25:49;22.20;99.90
27795;DHT22;15176;50.844;4.412;2022-10-16T14:28:23;22.60;98.60
27795;DHT22;15176;50.844;4.412;2022-10-16T14:30:56;22.80;98.10
27795;DHT22;15176;50.844;4.412;2022-10-16T14:36:11;22.50;99.40
27795;DHT22;15176;50.844;4.412;2022-10-16T14:38:39;22.50;99.90
27795;DHT22;15176;50.844;4.412;2022-10-16T14:41:06;22.70;99.20
27795;DHT22;15176;50.844;4.412;2022-10-16T14:43:40;22.70;99.00
27795;DHT22;15176;50.844;4.412;2022-10-16T14:46:15;22.80;98.60
27795;DHT22;15176;50.844;4.412;2022-10-16T14:48:48;22.70;98.90
27795;DHT22;15176;50.844;4.412;2022-10-16T14:51:17;22.80;99.00
27795;DHT22;15176;50.844;4.412;2022-10-16T14:53:44;22.70;99.50
27795;DHT22;15176;50.844;4.412;2022-10-16T14:56:23;22.70;99.20
27795;DHT22;15176;50.844;4.412;2022-10-16T14:58:51;22.60;99.60
27795;DHT22;15176;50.844;4.412;2022-10-16T15:01:17;22.50;99.90
27795;DHT22;15176;50.844;4.412;2022-10-16T15:03:43;22.30;99.90
27795;DHT22;15176;50.844;4.412;2022-10-16T15:06:14;22.30;99.90
27795;DHT22;15176;50.844;4.412;2022-10-16T15:08:40;22.40;99.90
27795;DHT22;15176;50.844;4.412;2022-10-16T15:11:14;22.40;99.90
27795;DHT22;15176;50.844;4.412;2022-10-16T15:13:40;22.60;99.90
27795;DHT22;15176;50.844;4.412;2022-10-16T15:16:12;22.50;99.90
27795;DHT22;15176;50.844;4.412;2022-10-16T15:18:38;22.60;99.90
27795;DHT22;15176;50.844;4.412;2022-10-16T15:21:04;22.70;99.90
27795;DHT22;15176;50.844;4.412;2022-10-16T15:23:30;22.80;99.70
27795;DHT22;15176;50.844;4.412;2022-10-16T15:25:56;22.60;99.90
27795;DHT22;15176;50.844;4.412;2022-10-16T15:28:23;22.60;99.90
27795;DHT22;15176;50.844;4.412;2022-10-16T15:30:51;22.50;99.90
27795;DHT22;15176;50.844;4.412;2022-10-16T15:33:22;22.00;99.90
27795;DHT22;15176;50.844;4.412;2022-10-16T15:35:50;22.10;99.90
27795;DHT22;15176;50.844;4.412;2022-10-16T15:38:17;22.10;99.90
27795;DHT22;15176;50.844;4.412;2022-10-16T15:40:44;22.30;99.90
27795;DHT22;15176;50.844;4.412;2022-10-16T15:43:10;22.40;99.90
27795;DHT22;15176;50.844;4.412;2022-10-16T15:45:38;22.40;99.90
27795;DHT22;15176;50.844;4.412;2022-10-16T15:48:04;21.70;99.90
27795;DHT22;15176;50.844;4.412;2022-10-16T15:50:30;21.10;99.90
27795;DHT22;15176;50.844;4.412;2022-10-16T15:52:58;20.70;99.90
27795;DHT22;15176;50.844;4.412;2022-10-16T15:55:24;20.80;99.90
27795;DHT22;15176;50.844;4.412;2022-10-16T15:57:49;21.30;99.90
27795;DHT22;15176;50.844;4.412;2022-10-16T16:00:17;21.20;99.90
27795;DHT22;15176;50.844;4.412;2022-10-16T16:02:48;21.20;99.90
27795;DHT22;15176;50.844;4.412;2022-10-16T16:05:14;20.90;99.90
27795;DHT22;15176;50.844;4.412;2022-10-16T16:07:40;20.90;99.90
27795;DHT22;15176;50.844;4.412;2022-10-16T16:10:08;20.70;99.90
27795;DHT22;15176;50.844;4.412;2022-10-16T16:12:35;20.50;99.90
27795;DHT22;15176;50.844;4.412;2022-10-16T16:15:01;20.50;99.90
27795;DHT22;15176;50.844;4.412;2022-10-16T16:17:27;20.60;99.90
27795;DHT22;15176;50.844;4.412;2022-10-16T16:19:53;20.50;99.90
27795;DHT22;15176;50.844;4.412;2022-10-16T16:22:18;20.70;99.90
27795;DHT22;15176;50.844;4.412;2022-10-16T16:24:44;20.80;99.90
27795;DHT22;15176;50.844;4.412;2022-10-16T16:27:11;21.00;99.90
27795;DHT22;15176;50.844;4.412;2022-10-16T16:29:37;21.10;99.90
27795;DHT22;15176;50.844;4.412;2022-10-16T16:32:03;21.10;99.90
27795;DHT22;15176;50.844;4.412;2022-10-16T16:34:29;21.20;99.90
27795;DHT22;15176;50.844;4.412;2022-10-16T16:36:56;21.20;99.90
27795;DHT22;15176;50.844;4.412;2022-10-16T16:39:22;21.10;99.90
27795;DHT22;15176;50.844;4.412;2022-10-16T16:41:48;21.00;99.90
27795;DHT22;15176;50.844;4.412;2022-10-16T16:44:15;21.10;99.90
27795;DHT22;15176;50.844;4.412;2022-10-16T16:46:42;20.90;99.90
27795;DHT22;15176;50.844;4.412;2022-10-16T16:49:10;21.00;99.90
27795;DHT22;15176;50.844;4.412;2022-10-16T16:51:36;21.00;99.90
27795;DHT22;15176;50.844;4.412;2022-10-16T16:54:02;21.00;99.90
27795;DHT22;15176;50.844;4.412;2022-10-16T16:56:28;20.90;99.90
27795;DHT22;15176;50.844;4.412;2022-10-16T16:58:55;21.00;99.90
27795;DHT22;15176;50.844;4.412;2022-10-16T17:01:24;21.30;99.90
27795;DHT22;15176;50.844;4.412;2022-10-16T17:03:51;21.50;99.90
27795;DHT22;15176;50.844;4.412;2022-10-16T17:06:20;21.70;99.90
27795;DHT22;15176;50.844;4.412;2022-10-16T17:08:49;21.90;99.90
27795;DHT22;15176;50.844;4.412;2022-10-16T17:11:26;21.20;99.90
27795;DHT22;15176;50.844;4.412;2022-10-16T17:13:53;21.10;99.90
27795;DHT22;15176;50.844;4.412;2022-10-16T17:16:20;21.20;99.90
27795;DHT22;15176;50.844;4.412;2022-10-16T17:18:47;21.00;99.90
27795;DHT22;15176;50.844;4.412;2022-10-16T17:21:12;21.20;99.90
27795;DHT22;15176;50.844;4.412;2022-10-16T17:23:38;21.20;99.90
27795;DHT22;15176;50.844;4.412;2022-10-16T17:26:13;21.30;99.90
27795;DHT22;15176;50.844;4.412;2022-10-16T17:28:39;21.30;99.90
27795;DHT22;15176;50.844;4.412;2022-10-16T17:31:14;21.20;99.90
27795;DHT22;15176;50.844;4.412;2022-10-16T17:33:40;21.10;99.90
27795;DHT22;15176;50.844;4.412;2022-10-16T17:36:07;21.00;99.90
27795;DHT22;15176;50.844;4.412;2022-10-16T17:38:33;20.90;99.90
27795;DHT22;15176;50.844;4.412;2022-10-16T17:41:20;20.80;99.90